Zeynalabdin Tagiyev — 9HLD8 — position and weather

sailwx.info

Track history (hours):
 
Tides and Currents Weather Stations Pressure Air Temp Water Temp Dewpoint Dewpoint Depression Visibility Wind Speed Wind Dir Waves Ship Positions

Zeynalabdin Tagiyev

Last reported at 2016-Jun-27 09:15 UTC. Time now 2016-Jun-28 18:52 UTC.
Position N 43°43' W 005°18'.

Length 140 m; draft 3.9 m.

Type: Cargo ship. MMSI: 256107000.

Date/timePositionNaut miles runAvg speedWind from/ knotsBaromVisibWave heightAir tempDewpointWater temp
2016-Jun-27 09:15N 43°43' W 005°18'7 9.8
2016-Jun-27 08:33N 43°44' W 005°27'7510.1
2016-Jun-27 01:07N 43°50' W 007°10'610.0
2016-Jun-27 00:32N 43°50' W 007°18'9 9.6
2016-Jun-26 23:33N 43°51' W 007°31'19 9.0
2016-Jun-26 21:25N 43°52' W 007°58'299 6.5
2016-Jun-24 23:33N 39°03' W 009°43'17 7.9
2016-Jun-24 21:25N 38°47' W 009°42'7 8.1
2016-Jun-24 20:33N 38°40' W 009°41'9 9.0
2016-Jun-24 19:31N 38°37' W 009°30'9 9.2
2016-Jun-24 18:33N 38°40' W 009°19'10 9.7
2016-Jun-24 17:33N 38°43' W 009°07'2 0.4
2016-Jun-24 13:30N 38°44' W 009°06'0 0.0
2016-Jun-24 11:33N 38°44' W 009°06'0 0.0
2016-Jun-24 09:24N 38°44' W 009°06'0 0.0
2016-Jun-24 08:31N 38°44' W 009°06'0 0.0
2016-Jun-24 00:31N 38°44' W 009°06'0 0.0
2016-Jun-23 20:26N 38°44' W 009°06'0 0.0
2016-Jun-23 19:24N 38°44' W 009°06'0 0.0
2016-Jun-23 18:33N 38°44' W 009°06'0 0.0
2016-Jun-23 17:26N 38°44' W 009°06'3 3.8
2016-Jun-23 16:32N 38°42' W 009°10'9 8.7
2016-Jun-23 15:33N 38°39' W 009°20'4 0.6
2016-Jun-23 09:33N 38°40' W 009°24'3 2.9
2016-Jun-23 08:33N 38°38' W 009°25'2 0.8
2016-Jun-23 05:30N 38°40' W 009°24'0 0.0
2016-Jun-23 02:07N 38°40' W 009°24'0 0.0
2016-Jun-22 21:33N 38°40' W 009°24'0 0.0
2016-Jun-22 20:27N 38°40' W 009°24'0 0.0
2016-Jun-22 19:29N 38°40' W 009°24'0 0.0
2016-Jun-22 18:33N 38°40' W 009°24'0 0.1
2016-Jun-22 17:33N 38°40' W 009°24'0 0.1
2016-Jun-22 16:25N 38°40' W 009°23'0 0.0
2016-Jun-22 15:25N 38°40' W 009°23'0 0.0
2016-Jun-22 14:18N 38°40' W 009°23'0 0.1
2016-Jun-22 13:32N 38°40' W 009°24'0 0.0
2016-Jun-22 12:17N 38°40' W 009°24'0 0.1
2016-Jun-22 11:33N 38°40' W 009°24'0 0.1
2016-Jun-22 10:18N 38°40' W 009°23'0 0.0
2016-Jun-22 09:29N 38°40' W 009°23'0 0.1
2016-Jun-22 06:19N 38°40' W 009°24'0 0.2
2016-Jun-22 05:31N 38°40' W 009°24'0 0.0
2016-Jun-22 04:29N 38°40' W 009°24'0 0.0
2016-Jun-22 03:21N 38°40' W 009°24'0 0.0
2016-Jun-22 02:33N 38°40' W 009°24'0 0.0
2016-Jun-22 01:33N 38°40' W 009°24'0 0.1
2016-Jun-22 00:22N 38°40' W 009°24'0 0.0
2016-Jun-21 22:26N 38°40' W 009°24'0 0.1
2016-Jun-21 21:23N 38°40' W 009°24'0 0.1
2016-Jun-21 20:33N 38°40' W 009°24'0 0.0
2016-Jun-21 19:29N 38°40' W 009°24'0 0.1
2016-Jun-21 18:31N 38°40' W 009°24'0 0.1
2016-Jun-21 17:31N 38°40' W 009°23'0 0.0
2016-Jun-21 16:23N 38°40' W 009°23'0 0.0
2016-Jun-21 15:30N 38°40' W 009°23'0 0.0
2016-Jun-21 14:20N 38°40' W 009°23'0 0.0
2016-Jun-21 12:32N 38°40' W 009°24'0 0.1
2016-Jun-21 11:24N 38°40' W 009°24'0 0.0
2016-Jun-21 10:33N 38°40' W 009°24'0 0.0
2016-Jun-21 09:10N 38°40' W 009°24'0 0.0
2016-Jun-21 08:29N 38°40' W 009°24'0 0.0
2016-Jun-21 07:13N 38°40' W 009°24'0 0.1
2016-Jun-21 06:26N 38°40' W 009°24'0 0.0
2016-Jun-21 03:22N 38°40' W 009°24'0 0.0
2016-Jun-21 01:27N 38°40' W 009°24'0 0.0
2016-Jun-20 23:15N 38°40' W 009°24'0 0.2
2016-Jun-20 22:25N 38°40' W 009°24'6 6.3
2016-Jun-20 21:30N 38°39' W 009°31'8 8.9
2016-Jun-20 20:33N 38°39' W 009°42'10 9.4
2016-Jun-20 19:29N 38°49' W 009°43'  
2016-Jun-17 23:24N 46°52' W 002°59'7 8.3
2016-Jun-17 22:33N 46°56' W 002°50'8 8.1
2016-Jun-17 21:33N 47°00' W 002°41'8 8.0
2016-Jun-17 20:32N 47°04' W 002°30'9 8.8
2016-Jun-17 19:33N 47°09' W 002°20'10 9.9
2016-Jun-17 18:33N 47°17' W 002°11'1110.6
2016-Jun-17 17:33N 47°17' W 001°55'1010.4
2016-Jun-17 16:33N 47°12' W 001°41'3 3.1
2016-Jun-17 15:28N 47°12' W 001°37'0 0.0
2016-Jun-17 14:31N 47°12' W 001°37'0 0.0
2016-Jun-17 13:33N 47°12' W 001°37'0 0.0
2016-Jun-17 12:28N 47°12' W 001°37'0 0.0
2016-Jun-17 11:33N 47°12' W 001°37'0 0.0
2016-Jun-17 10:32N 47°12' W 001°37'0 0.0
2016-Jun-17 09:29N 47°12' W 001°37'  
Track history (hours):
 
Tides and Currents Weather Stations Pressure Air Temp Water Temp Dewpoint Dewpoint Depression Visibility Wind Speed Wind Dir Waves Ship Positions

Zeynalabdin Tagiyev

Last reported at 2016-Jun-27 09:15 UTC. Time now 2016-Jun-28 18:52 UTC.
Position N 43°43' W 005°18'.

Length 140 m; draft 3.9 m.

Type: Cargo ship. MMSI: 256107000.

Date/timePositionNaut miles runAvg speedWind from/ knotsBaromVisibWave heightAir tempDewpointWater temp
2016-Jun-27 09:15N 43°43' W 005°18'7 9.8
2016-Jun-27 08:33N 43°44' W 005°27'7510.1
2016-Jun-27 01:07N 43°50' W 007°10'610.0
2016-Jun-27 00:32N 43°50' W 007°18'9 9.6
2016-Jun-26 23:33N 43°51' W 007°31'19 9.0
2016-Jun-26 21:25N 43°52' W 007°58'299 6.5
2016-Jun-24 23:33N 39°03' W 009°43'17 7.9
2016-Jun-24 21:25N 38°47' W 009°42'7 8.1
2016-Jun-24 20:33N 38°40' W 009°41'9 9.0
2016-Jun-24 19:31N 38°37' W 009°30'9 9.2
2016-Jun-24 18:33N 38°40' W 009°19'10 9.7
2016-Jun-24 17:33N 38°43' W 009°07'2 0.4
2016-Jun-24 13:30N 38°44' W 009°06'0 0.0
2016-Jun-24 11:33N 38°44' W 009°06'0 0.0
2016-Jun-24 09:24N 38°44' W 009°06'0 0.0
2016-Jun-24 08:31N 38°44' W 009°06'0 0.0
2016-Jun-24 00:31N 38°44' W 009°06'0 0.0
2016-Jun-23 20:26N 38°44' W 009°06'0 0.0
2016-Jun-23 19:24N 38°44' W 009°06'0 0.0
2016-Jun-23 18:33N 38°44' W 009°06'0 0.0
2016-Jun-23 17:26N 38°44' W 009°06'3 3.8
2016-Jun-23 16:32N 38°42' W 009°10'9 8.7
2016-Jun-23 15:33N 38°39' W 009°20'4 0.6
2016-Jun-23 09:33N 38°40' W 009°24'3 2.9
2016-Jun-23 08:33N 38°38' W 009°25'2 0.8
2016-Jun-23 05:30N 38°40' W 009°24'0 0.0
2016-Jun-23 02:07N 38°40' W 009°24'0 0.0
2016-Jun-22 21:33N 38°40' W 009°24'0 0.0
2016-Jun-22 20:27N 38°40' W 009°24'0 0.0
2016-Jun-22 19:29N 38°40' W 009°24'0 0.0
2016-Jun-22 18:33N 38°40' W 009°24'0 0.1
2016-Jun-22 17:33N 38°40' W 009°24'0 0.1
2016-Jun-22 16:25N 38°40' W 009°23'0 0.0
2016-Jun-22 15:25N 38°40' W 009°23'0 0.0
2016-Jun-22 14:18N 38°40' W 009°23'0 0.1
2016-Jun-22 13:32N 38°40' W 009°24'0 0.0
2016-Jun-22 12:17N 38°40' W 009°24'0 0.1
2016-Jun-22 11:33N 38°40' W 009°24'0 0.1
2016-Jun-22 10:18N 38°40' W 009°23'0 0.0
2016-Jun-22 09:29N 38°40' W 009°23'0 0.1
2016-Jun-22 06:19N 38°40' W 009°24'0 0.2
2016-Jun-22 05:31N 38°40' W 009°24'0 0.0
2016-Jun-22 04:29N 38°40' W 009°24'0 0.0
2016-Jun-22 03:21N 38°40' W 009°24'0 0.0
2016-Jun-22 02:33N 38°40' W 009°24'0 0.0
2016-Jun-22 01:33N 38°40' W 009°24'0 0.1
2016-Jun-22 00:22N 38°40' W 009°24'0 0.0
2016-Jun-21 22:26N 38°40' W 009°24'0 0.1
2016-Jun-21 21:23N 38°40' W 009°24'0 0.1
2016-Jun-21 20:33N 38°40' W 009°24'0 0.0
2016-Jun-21 19:29N 38°40' W 009°24'0 0.1
2016-Jun-21 18:31N 38°40' W 009°24'0 0.1
2016-Jun-21 17:31N 38°40' W 009°23'0 0.0
2016-Jun-21 16:23N 38°40' W 009°23'0 0.0
2016-Jun-21 15:30N 38°40' W 009°23'0 0.0
2016-Jun-21 14:20N 38°40' W 009°23'0 0.0
2016-Jun-21 12:32N 38°40' W 009°24'0 0.1
2016-Jun-21 11:24N 38°40' W 009°24'0 0.0
2016-Jun-21 10:33N 38°40' W 009°24'0 0.0
2016-Jun-21 09:10N 38°40' W 009°24'0 0.0
2016-Jun-21 08:29N 38°40' W 009°24'0 0.0
2016-Jun-21 07:13N 38°40' W 009°24'0 0.1
2016-Jun-21 06:26N 38°40' W 009°24'0 0.0
2016-Jun-21 03:22N 38°40' W 009°24'0 0.0
2016-Jun-21 01:27N 38°40' W 009°24'0 0.0
2016-Jun-20 23:15N 38°40' W 009°24'0 0.2
2016-Jun-20 22:25N 38°40' W 009°24'6 6.3
2016-Jun-20 21:30N 38°39' W 009°31'8 8.9
2016-Jun-20 20:33N 38°39' W 009°42'10 9.4
2016-Jun-20 19:29N 38°49' W 009°43'  
2016-Jun-17 23:24N 46°52' W 002°59'7 8.3
2016-Jun-17 22:33N 46°56' W 002°50'8 8.1
2016-Jun-17 21:33N 47°00' W 002°41'8 8.0
2016-Jun-17 20:32N 47°04' W 002°30'9 8.8
2016-Jun-17 19:33N 47°09' W 002°20'10 9.9
2016-Jun-17 18:33N 47°17' W 002°11'1110.6
2016-Jun-17 17:33N 47°17' W 001°55'1010.4
2016-Jun-17 16:33N 47°12' W 001°41'3 3.1
2016-Jun-17 15:28N 47°12' W 001°37'0 0.0
2016-Jun-17 14:31N 47°12' W 001°37'0 0.0
2016-Jun-17 13:33N 47°12' W 001°37'0 0.0
2016-Jun-17 12:28N 47°12' W 001°37'0 0.0
2016-Jun-17 11:33N 47°12' W 001°37'0 0.0
2016-Jun-17 10:32N 47°12' W 001°37'0 0.0
2016-Jun-17 09:29N 47°12' W 001°37'  

Dump ship's entire track history